sensor_id;sensor_type;location;lat;lon;timestamp;P1;durP1;ratioP1;P2;durP2;ratioP2
23682;SDS011;24897;53.514;10.482;2022-10-22T00:01:43;44.73;;;36.27;;
23682;SDS011;24897;53.514;10.482;2022-10-22T00:04:28;44.53;;;35.93;;
23682;SDS011;24897;53.514;10.482;2022-10-22T00:07:12;47.80;;;38.57;;
23682;SDS011;24897;53.514;10.482;2022-10-22T00:09:57;48.00;;;38.53;;
23682;SDS011;24897;53.514;10.482;2022-10-22T00:12:41;56.37;;;40.03;;
23682;SDS011;24897;53.514;10.482;2022-10-22T00:15:25;62.10;;;44.30;;
23682;SDS011;24897;53.514;10.482;2022-10-22T00:18:09;53.70;;;39.83;;
23682;SDS011;24897;53.514;10.482;2022-10-22T00:20:53;50.20;;;38.27;;
23682;SDS011;24897;53.514;10.482;2022-10-22T00:23:39;48.90;;;39.03;;
23682;SDS011;24897;53.514;10.482;2022-10-22T00:26:25;47.03;;;37.63;;
23682;SDS011;24897;53.514;10.482;2022-10-22T00:29:09;50.67;;;38.93;;
23682;SDS011;24897;53.514;10.482;2022-10-22T00:31:54;60.43;;;42.17;;
23682;SDS011;24897;53.514;10.482;2022-10-22T00:34:38;48.57;;;38.17;;
23682;SDS011;24897;53.514;10.482;2022-10-22T00:37:22;54.60;;;38.83;;
23682;SDS011;24897;53.514;10.482;2022-10-22T00:40:07;69.67;;;43.97;;
23682;SDS011;24897;53.514;10.482;2022-10-22T00:42:52;48.30;;;37.67;;
23682;SDS011;24897;53.514;10.482;2022-10-22T00:45:37;53.77;;;38.70;;
23682;SDS011;24897;53.514;10.482;2022-10-22T00:48:22;58.13;;;40.50;;
23682;SDS011;24897;53.514;10.482;2022-10-22T00:51:12;66.17;;;43.40;;
23682;SDS011;24897;53.514;10.482;2022-10-22T00:53:59;71.13;;;44.57;;
23682;SDS011;24897;53.514;10.482;2022-10-22T00:56:47;61.80;;;43.20;;
23682;SDS011;24897;53.514;10.482;2022-10-22T00:59:32;52.20;;;39.07;;
23682;SDS011;24897;53.514;10.482;2022-10-22T01:02:16;59.43;;;40.00;;
23682;SDS011;24897;53.514;10.482;2022-10-22T01:05:01;61.23;;;40.67;;
23682;SDS011;24897;53.514;10.482;2022-10-22T01:07:47;63.60;;;42.10;;
23682;SDS011;24897;53.514;10.482;2022-10-22T01:10:43;56.00;;;39.73;;
23682;SDS011;24897;53.514;10.482;2022-10-22T01:16:34;59.87;;;42.03;;
23682;SDS011;24897;53.514;10.482;2022-10-22T01:23:28;74.43;;;46.07;;
23682;SDS011;24897;53.514;10.482;2022-10-22T01:32:14;77.60;;;46.37;;
23682;SDS011;24897;53.514;10.482;2022-10-22T01:35:02;84.40;;;47.60;;
23682;SDS011;24897;53.514;10.482;2022-10-22T01:37:50;73.00;;;44.93;;
23682;SDS011;24897;53.514;10.482;2022-10-22T01:40:38;85.37;;;47.17;;
23682;SDS011;24897;53.514;10.482;2022-10-22T01:43:23;71.83;;;44.27;;
23682;SDS011;24897;53.514;10.482;2022-10-22T01:46:08;58.43;;;40.47;;
23682;SDS011;24897;53.514;10.482;2022-10-22T02:00:56;71.43;;;43.97;;
23682;SDS011;24897;53.514;10.482;2022-10-22T02:03:51;75.30;;;45.73;;
23682;SDS011;24897;53.514;10.482;2022-10-22T02:06:49;81.67;;;46.67;;
23682;SDS011;24897;53.514;10.482;2022-10-22T02:09:37;56.87;;;40.97;;
23682;SDS011;24897;53.514;10.482;2022-10-22T02:12:23;77.43;;;46.70;;
23682;SDS011;24897;53.514;10.482;2022-10-22T02:15:10;69.57;;;45.27;;
23682;SDS011;24897;53.514;10.482;2022-10-22T02:17:56;63.57;;;42.83;;
23682;SDS011;24897;53.514;10.482;2022-10-22T02:20:42;57.57;;;39.90;;
23682;SDS011;24897;53.514;10.482;2022-10-22T02:23:27;69.33;;;43.87;;
23682;SDS011;24897;53.514;10.482;2022-10-22T02:29:25;64.23;;;43.23;;
23682;SDS011;24897;53.514;10.482;2022-10-22T02:32:15;72.37;;;45.73;;
23682;SDS011;24897;53.514;10.482;2022-10-22T02:35:03;61.70;;;42.80;;
23682;SDS011;24897;53.514;10.482;2022-10-22T02:37:48;58.03;;;40.93;;
23682;SDS011;24897;53.514;10.482;2022-10-22T02:40:34;58.67;;;40.90;;
23682;SDS011;24897;53.514;10.482;2022-10-22T02:43:19;59.07;;;41.30;;
23682;SDS011;24897;53.514;10.482;2022-10-22T02:46:03;72.67;;;45.77;;
23682;SDS011;24897;53.514;10.482;2022-10-22T02:48:47;55.53;;;40.80;;
23682;SDS011;24897;53.514;10.482;2022-10-22T02:51:31;48.63;;;38.07;;
23682;SDS011;24897;53.514;10.482;2022-10-22T02:54:15;55.33;;;40.10;;
23682;SDS011;24897;53.514;10.482;2022-10-22T02:57:00;49.93;;;37.90;;
23682;SDS011;24897;53.514;10.482;2022-10-22T02:59:44;51.40;;;37.63;;
23682;SDS011;24897;53.514;10.482;2022-10-22T03:02:29;44.20;;;36.27;;
23682;SDS011;24897;53.514;10.482;2022-10-22T03:05:13;51.67;;;39.33;;
23682;SDS011;24897;53.514;10.482;2022-10-22T03:07:57;64.20;;;43.47;;
23682;SDS011;24897;53.514;10.482;2022-10-22T03:10:42;59.90;;;43.27;;
23682;SDS011;24897;53.514;10.482;2022-10-22T03:13:26;52.83;;;39.60;;
23682;SDS011;24897;53.514;10.482;2022-10-22T03:16:10;51.97;;;39.63;;
23682;SDS011;24897;53.514;10.482;2022-10-22T03:18:54;54.00;;;40.10;;
23682;SDS011;24897;53.514;10.482;2022-10-22T03:21:50;51.20;;;39.53;;
23682;SDS011;24897;53.514;10.482;2022-10-22T03:24:43;52.60;;;40.00;;
23682;SDS011;24897;53.514;10.482;2022-10-22T03:27:29;55.90;;;40.90;;
23682;SDS011;24897;53.514;10.482;2022-10-22T03:30:13;53.23;;;39.80;;
23682;SDS011;24897;53.514;10.482;2022-10-22T03:32:58;52.87;;;40.63;;
23682;SDS011;24897;53.514;10.482;2022-10-22T03:35:43;49.50;;;38.70;;
23682;SDS011;24897;53.514;10.482;2022-10-22T03:38:30;55.93;;;41.03;;
23682;SDS011;24897;53.514;10.482;2022-10-22T03:41:14;51.13;;;40.13;;
23682;SDS011;24897;53.514;10.482;2022-10-22T03:44:00;48.77;;;39.30;;
23682;SDS011;24897;53.514;10.482;2022-10-22T03:46:45;48.67;;;38.27;;
23682;SDS011;24897;53.514;10.482;2022-10-22T03:49:29;49.60;;;38.67;;
23682;SDS011;24897;53.514;10.482;2022-10-22T03:52:14;49.33;;;38.87;;
23682;SDS011;24897;53.514;10.482;2022-10-22T03:54:58;66.10;;;46.13;;
23682;SDS011;24897;53.514;10.482;2022-10-22T03:57:42;56.10;;;42.03;;
23682;SDS011;24897;53.514;10.482;2022-10-22T04:00:26;61.57;;;43.73;;
23682;SDS011;24897;53.514;10.482;2022-10-22T04:03:10;56.57;;;42.97;;
23682;SDS011;24897;53.514;10.482;2022-10-22T04:05:59;53.83;;;41.77;;
23682;SDS011;24897;53.514;10.482;2022-10-22T04:08:44;52.23;;;40.27;;
23682;SDS011;24897;53.514;10.482;2022-10-22T04:11:28;53.07;;;41.43;;
23682;SDS011;24897;53.514;10.482;2022-10-22T04:14:12;54.30;;;42.10;;
23682;SDS011;24897;53.514;10.482;2022-10-22T04:16:57;65.40;;;46.20;;
23682;SDS011;24897;53.514;10.482;2022-10-22T04:19:41;58.77;;;44.47;;
23682;SDS011;24897;53.514;10.482;2022-10-22T04:22:25;56.47;;;42.10;;
23682;SDS011;24897;53.514;10.482;2022-10-22T04:25:09;76.33;;;47.23;;
23682;SDS011;24897;53.514;10.482;2022-10-22T04:27:53;116.57;;;52.10;;
23682;SDS011;24897;53.514;10.482;2022-10-22T04:30:37;105.20;;;51.23;;
23682;SDS011;24897;53.514;10.482;2022-10-22T04:33:22;128.33;;;53.47;;
23682;SDS011;24897;53.514;10.482;2022-10-22T04:36:07;121.67;;;54.67;;
23682;SDS011;24897;53.514;10.482;2022-10-22T04:38:59;127.87;;;52.63;;
23682;SDS011;24897;53.514;10.482;2022-10-22T04:41:44;153.13;;;55.90;;
23682;SDS011;24897;53.514;10.482;2022-10-22T04:44:28;209.47;;;61.60;;
23682;SDS011;24897;53.514;10.482;2022-10-22T04:47:13;169.67;;;59.60;;
23682;SDS011;24897;53.514;10.482;2022-10-22T04:49:57;185.57;;;64.47;;
23682;SDS011;24897;53.514;10.482;2022-10-22T04:52:41;135.57;;;56.80;;
23682;SDS011;24897;53.514;10.482;2022-10-22T04:55:26;133.10;;;57.80;;
23682;SDS011;24897;53.514;10.482;2022-10-22T04:58:10;90.23;;;53.03;;
23682;SDS011;24897;53.514;10.482;2022-10-22T05:00:55;156.93;;;59.90;;
23682;SDS011;24897;53.514;10.482;2022-10-22T05:03:40;140.40;;;59.07;;
23682;SDS011;24897;53.514;10.482;2022-10-22T05:06:25;111.60;;;55.40;;
23682;SDS011;24897;53.514;10.482;2022-10-22T05:09:11;108.40;;;56.57;;
23682;SDS011;24897;53.514;10.482;2022-10-22T05:11:57;204.90;;;68.67;;
23682;SDS011;24897;53.514;10.482;2022-10-22T05:14:41;98.57;;;53.33;;
23682;SDS011;24897;53.514;10.482;2022-10-22T05:17:25;175.07;;;64.10;;
23682;SDS011;24897;53.514;10.482;2022-10-22T05:20:10;95.70;;;54.27;;
23682;SDS011;24897;53.514;10.482;2022-10-22T05:22:54;148.17;;;61.70;;
23682;SDS011;24897;53.514;10.482;2022-10-22T05:25:39;253.47;;;73.40;;
23682;SDS011;24897;53.514;10.482;2022-10-22T05:28:22;162.33;;;63.57;;
23682;SDS011;24897;53.514;10.482;2022-10-22T05:31:08;261.43;;;73.60;;
23682;SDS011;24897;53.514;10.482;2022-10-22T05:33:54;111.30;;;56.47;;
23682;SDS011;24897;53.514;10.482;2022-10-22T05:36:38;151.00;;;62.60;;
23682;SDS011;24897;53.514;10.482;2022-10-22T05:39:23;145.87;;;59.57;;
23682;SDS011;24897;53.514;10.482;2022-10-22T05:42:07;177.33;;;63.60;;
23682;SDS011;24897;53.514;10.482;2022-10-22T05:44:52;216.67;;;67.47;;
23682;SDS011;24897;53.514;10.482;2022-10-22T05:47:36;154.37;;;62.07;;
23682;SDS011;24897;53.514;10.482;2022-10-22T05:50:20;153.67;;;60.77;;
23682;SDS011;24897;53.514;10.482;2022-10-22T05:53:04;246.03;;;68.70;;
23682;SDS011;24897;53.514;10.482;2022-10-22T05:55:48;167.07;;;61.63;;
23682;SDS011;24897;53.514;10.482;2022-10-22T05:58:33;185.37;;;62.23;;
23682;SDS011;24897;53.514;10.482;2022-10-22T06:01:24;120.70;;;58.07;;
23682;SDS011;24897;53.514;10.482;2022-10-22T06:04:11;226.70;;;68.63;;
23682;SDS011;24897;53.514;10.482;2022-10-22T06:06:56;215.57;;;68.03;;
23682;SDS011;24897;53.514;10.482;2022-10-22T06:09:40;219.87;;;68.03;;
23682;SDS011;24897;53.514;10.482;2022-10-22T06:12:25;198.03;;;63.47;;
23682;SDS011;24897;53.514;10.482;2022-10-22T06:15:10;184.30;;;65.30;;
23682;SDS011;24897;53.514;10.482;2022-10-22T06:17:56;184.67;;;63.63;;
23682;SDS011;24897;53.514;10.482;2022-10-22T06:20:41;136.63;;;59.40;;
23682;SDS011;24897;53.514;10.482;2022-10-22T06:23:26;146.10;;;60.07;;
23682;SDS011;24897;53.514;10.482;2022-10-22T06:26:11;179.40;;;67.23;;
23682;SDS011;24897;53.514;10.482;2022-10-22T06:28:56;144.80;;;59.83;;
23682;SDS011;24897;53.514;10.482;2022-10-22T06:31:41;225.33;;;68.57;;
23682;SDS011;24897;53.514;10.482;2022-10-22T06:34:25;224.07;;;65.17;;
23682;SDS011;24897;53.514;10.482;2022-10-22T06:37:10;262.77;;;70.30;;
23682;SDS011;24897;53.514;10.482;2022-10-22T06:39:56;204.63;;;66.23;;
23682;SDS011;24897;53.514;10.482;2022-10-22T06:42:40;161.83;;;61.33;;
23682;SDS011;24897;53.514;10.482;2022-10-22T06:45:25;171.17;;;64.80;;
23682;SDS011;24897;53.514;10.482;2022-10-22T06:48:09;92.03;;;54.33;;
23682;SDS011;24897;53.514;10.482;2022-10-22T06:50:53;235.20;;;67.87;;
23682;SDS011;24897;53.514;10.482;2022-10-22T06:53:37;165.93;;;61.07;;
23682;SDS011;24897;53.514;10.482;2022-10-22T06:56:23;161.17;;;61.27;;
23682;SDS011;24897;53.514;10.482;2022-10-22T06:59:09;100.07;;;53.57;;
23682;SDS011;24897;53.514;10.482;2022-10-22T07:01:53;113.70;;;56.27;;
23682;SDS011;24897;53.514;10.482;2022-10-22T07:04:37;177.60;;;62.97;;
23682;SDS011;24897;53.514;10.482;2022-10-22T07:07:22;220.17;;;66.93;;
23682;SDS011;24897;53.514;10.482;2022-10-22T07:10:07;129.40;;;55.20;;
23682;SDS011;24897;53.514;10.482;2022-10-22T07:12:52;99.97;;;50.40;;
23682;SDS011;24897;53.514;10.482;2022-10-22T07:15:36;109.00;;;53.17;;
23682;SDS011;24897;53.514;10.482;2022-10-22T07:18:20;75.77;;;47.50;;
23682;SDS011;24897;53.514;10.482;2022-10-22T07:21:05;72.33;;;46.63;;
23682;SDS011;24897;53.514;10.482;2022-10-22T07:23:50;119.37;;;54.40;;
23682;SDS011;24897;53.514;10.482;2022-10-22T07:26:35;149.90;;;56.83;;
23682;SDS011;24897;53.514;10.482;2022-10-22T07:29:19;160.70;;;57.27;;
23682;SDS011;24897;53.514;10.482;2022-10-22T07:32:03;137.83;;;56.63;;
23682;SDS011;24897;53.514;10.482;2022-10-22T07:34:48;124.33;;;53.63;;
23682;SDS011;24897;53.514;10.482;2022-10-22T07:37:32;155.73;;;59.10;;
23682;SDS011;24897;53.514;10.482;2022-10-22T07:40:17;114.80;;;55.00;;
23682;SDS011;24897;53.514;10.482;2022-10-22T07:43:01;129.17;;;54.40;;
23682;SDS011;24897;53.514;10.482;2022-10-22T07:45:45;107.30;;;49.93;;
23682;SDS011;24897;53.514;10.482;2022-10-22T07:48:30;103.93;;;50.73;;
23682;SDS011;24897;53.514;10.482;2022-10-22T07:51:14;121.17;;;55.10;;
23682;SDS011;24897;53.514;10.482;2022-10-22T07:53:59;153.43;;;57.43;;
23682;SDS011;24897;53.514;10.482;2022-10-22T07:56:43;111.93;;;54.17;;
23682;SDS011;24897;53.514;10.482;2022-10-22T07:59:27;82.13;;;48.87;;
23682;SDS011;24897;53.514;10.482;2022-10-22T08:02:11;106.13;;;52.10;;
23682;SDS011;24897;53.514;10.482;2022-10-22T08:04:55;97.27;;;57.10;;
23682;SDS011;24897;53.514;10.482;2022-10-22T08:07:40;75.93;;;49.57;;
23682;SDS011;24897;53.514;10.482;2022-10-22T08:10:24;68.83;;;46.43;;
23682;SDS011;24897;53.514;10.482;2022-10-22T08:13:08;97.90;;;52.73;;
23682;SDS011;24897;53.514;10.482;2022-10-22T08:15:53;101.23;;;53.00;;
23682;SDS011;24897;53.514;10.482;2022-10-22T08:18:37;70.10;;;45.73;;
23682;SDS011;24897;53.514;10.482;2022-10-22T08:21:21;69.43;;;45.97;;
23682;SDS011;24897;53.514;10.482;2022-10-22T08:24:06;67.70;;;45.17;;
23682;SDS011;24897;53.514;10.482;2022-10-22T08:26:51;50.17;;;40.00;;
23682;SDS011;24897;53.514;10.482;2022-10-22T08:29:38;59.87;;;44.90;;
23682;SDS011;24897;53.514;10.482;2022-10-22T08:32:23;62.17;;;46.70;;
23682;SDS011;24897;53.514;10.482;2022-10-22T08:35:07;61.43;;;44.73;;
23682;SDS011;24897;53.514;10.482;2022-10-22T08:37:58;60.53;;;45.47;;
23682;SDS011;24897;53.514;10.482;2022-10-22T08:40:42;54.63;;;41.33;;
23682;SDS011;24897;53.514;10.482;2022-10-22T08:49:24;43.43;;;38.60;;
23682;SDS011;24897;53.514;10.482;2022-10-22T08:52:12;43.73;;;39.03;;
23682;SDS011;24897;53.514;10.482;2022-10-22T08:54:59;45.87;;;40.97;;
23682;SDS011;24897;53.514;10.482;2022-10-22T08:58:07;42.77;;;38.27;;
23682;SDS011;24897;53.514;10.482;2022-10-22T09:01:12;40.63;;;36.77;;
23682;SDS011;24897;53.514;10.482;2022-10-22T09:04:10;38.37;;;34.67;;
23682;SDS011;24897;53.514;10.482;2022-10-22T09:07:05;36.70;;;33.13;;
23682;SDS011;24897;53.514;10.482;2022-10-22T09:09:51;33.23;;;30.13;;
23682;SDS011;24897;53.514;10.482;2022-10-22T09:12:37;32.20;;;29.07;;
23682;SDS011;24897;53.514;10.482;2022-10-22T09:15:22;32.73;;;29.53;;
23682;SDS011;24897;53.514;10.482;2022-10-22T09:21:21;30.93;;;28.03;;
23682;SDS011;24897;53.514;10.482;2022-10-22T09:24:39;30.40;;;27.50;;
23682;SDS011;24897;53.514;10.482;2022-10-22T09:27:29;30.37;;;27.40;;
23682;SDS011;24897;53.514;10.482;2022-10-22T09:30:15;29.10;;;26.40;;
23682;SDS011;24897;53.514;10.482;2022-10-22T09:38:46;35.10;;;31.70;;
23682;SDS011;24897;53.514;10.482;2022-10-22T09:41:35;31.50;;;28.27;;
23682;SDS011;24897;53.514;10.482;2022-10-22T09:44:19;31.27;;;28.37;;
23682;SDS011;24897;53.514;10.482;2022-10-22T09:47:04;30.43;;;27.33;;
23682;SDS011;24897;53.514;10.482;2022-10-22T09:49:50;30.90;;;27.63;;
23682;SDS011;24897;53.514;10.482;2022-10-22T09:56:07;25.80;;;23.13;;
23682;SDS011;24897;53.514;10.482;2022-10-22T09:58:54;25.30;;;22.97;;
23682;SDS011;24897;53.514;10.482;2022-10-22T10:01:40;26.20;;;23.50;;
23682;SDS011;24897;53.514;10.482;2022-10-22T10:04:24;29.27;;;26.53;;
23682;SDS011;24897;53.514;10.482;2022-10-22T10:07:14;30.47;;;27.47;;
23682;SDS011;24897;53.514;10.482;2022-10-22T10:10:00;30.17;;;27.17;;
23682;SDS011;24897;53.514;10.482;2022-10-22T10:12:47;31.33;;;28.30;;
23682;SDS011;24897;53.514;10.482;2022-10-22T10:22:09;26.67;;;24.10;;
23682;SDS011;24897;53.514;10.482;2022-10-22T10:30:53;25.63;;;23.13;;
23682;SDS011;24897;53.514;10.482;2022-10-22T10:33:48;26.57;;;23.67;;
23682;SDS011;24897;53.514;10.482;2022-10-22T10:36:39;25.53;;;23.13;;
23682;SDS011;24897;53.514;10.482;2022-10-22T10:40:10;25.97;;;23.57;;
23682;SDS011;24897;53.514;10.482;2022-10-22T10:43:21;25.77;;;22.63;;
23682;SDS011;24897;53.514;10.482;2022-10-22T10:46:14;24.23;;;21.53;;
23682;SDS011;24897;53.514;10.482;2022-10-22T10:49:17;23.33;;;21.00;;
23682;SDS011;24897;53.514;10.482;2022-10-22T10:52:10;23.20;;;20.90;;
23682;SDS011;24897;53.514;10.482;2022-10-22T10:58:14;23.03;;;20.63;;
23682;SDS011;24897;53.514;10.482;2022-10-22T11:01:08;23.27;;;21.07;;
23682;SDS011;24897;53.514;10.482;2022-10-22T11:07:14;20.77;;;18.77;;
23682;SDS011;24897;53.514;10.482;2022-10-22T11:10:05;20.97;;;18.77;;
23682;SDS011;24897;53.514;10.482;2022-10-22T11:13:16;22.73;;;19.03;;
23682;SDS011;24897;53.514;10.482;2022-10-22T11:16:15;19.90;;;17.80;;
23682;SDS011;24897;53.514;10.482;2022-10-22T11:19:15;22.07;;;19.60;;
23682;SDS011;24897;53.514;10.482;2022-10-22T11:22:04;20.30;;;18.03;;
23682;SDS011;24897;53.514;10.482;2022-10-22T11:25:05;20.10;;;17.90;;
23682;SDS011;24897;53.514;10.482;2022-10-22T11:28:10;20.50;;;18.30;;
23682;SDS011;24897;53.514;10.482;2022-10-22T11:31:04;19.77;;;17.70;;
23682;SDS011;24897;53.514;10.482;2022-10-22T11:37:05;19.43;;;17.63;;
23682;SDS011;24897;53.514;10.482;2022-10-22T11:39:51;21.33;;;19.17;;
23682;SDS011;24897;53.514;10.482;2022-10-22T11:42:39;22.30;;;20.00;;
23682;SDS011;24897;53.514;10.482;2022-10-22T11:45:28;19.50;;;17.73;;
23682;SDS011;24897;53.514;10.482;2022-10-22T11:48:25;20.67;;;18.63;;
23682;SDS011;24897;53.514;10.482;2022-10-22T11:54:56;19.73;;;17.80;;
23682;SDS011;24897;53.514;10.482;2022-10-22T11:57:36;20.47;;;17.90;;
23682;SDS011;24897;53.514;10.482;2022-10-22T12:00:41;19.80;;;17.83;;
23682;SDS011;24897;53.514;10.482;2022-10-22T12:08:59;20.17;;;18.07;;
23682;SDS011;24897;53.514;10.482;2022-10-22T12:11:48;21.67;;;18.37;;
23682;SDS011;24897;53.514;10.482;2022-10-22T12:14:55;20.17;;;18.07;;
23682;SDS011;24897;53.514;10.482;2022-10-22T12:17:40;20.50;;;18.47;;
23682;SDS011;24897;53.514;10.482;2022-10-22T12:20:25;20.53;;;18.63;;
23682;SDS011;24897;53.514;10.482;2022-10-22T12:23:10;20.37;;;18.23;;
23682;SDS011;24897;53.514;10.482;2022-10-22T12:25:56;21.17;;;17.97;;
23682;SDS011;24897;53.514;10.482;2022-10-22T12:28:40;19.70;;;17.70;;
23682;SDS011;24897;53.514;10.482;2022-10-22T12:31:25;20.10;;;18.10;;
23682;SDS011;24897;53.514;10.482;2022-10-22T12:34:12;20.60;;;18.40;;
23682;SDS011;24897;53.514;10.482;2022-10-22T12:36:57;25.87;;;22.87;;
23682;SDS011;24897;53.514;10.482;2022-10-22T12:39:41;21.10;;;19.10;;
23682;SDS011;24897;53.514;10.482;2022-10-22T12:42:25;19.97;;;18.17;;
23682;SDS011;24897;53.514;10.482;2022-10-22T12:45:10;19.40;;;17.50;;
23682;SDS011;24897;53.514;10.482;2022-10-22T12:47:55;19.27;;;17.47;;
23682;SDS011;24897;53.514;10.482;2022-10-22T12:50:46;18.67;;;16.77;;
23682;SDS011;24897;53.514;10.482;2022-10-22T12:53:37;18.73;;;16.90;;
23682;SDS011;24897;53.514;10.482;2022-10-22T12:56:27;19.73;;;17.83;;
23682;SDS011;24897;53.514;10.482;2022-10-22T12:59:19;20.77;;;18.73;;
23682;SDS011;24897;53.514;10.482;2022-10-22T13:02:10;21.53;;;19.23;;
23682;SDS011;24897;53.514;10.482;2022-10-22T13:05:14;21.90;;;19.73;;
23682;SDS011;24897;53.514;10.482;2022-10-22T13:08:19;24.20;;;22.00;;
23682;SDS011;24897;53.514;10.482;2022-10-22T13:11:06;24.30;;;21.90;;
23682;SDS011;24897;53.514;10.482;2022-10-22T13:13:59;24.80;;;22.40;;
23682;SDS011;24897;53.514;10.482;2022-10-22T13:19:59;26.70;;;24.40;;
23682;SDS011;24897;53.514;10.482;2022-10-22T13:22:51;28.03;;;25.17;;
23682;SDS011;24897;53.514;10.482;2022-10-22T13:25:38;27.90;;;25.43;;
23682;SDS011;24897;53.514;10.482;2022-10-22T13:28:23;26.70;;;24.27;;
23682;SDS011;24897;53.514;10.482;2022-10-22T13:31:10;26.20;;;23.73;;
23682;SDS011;24897;53.514;10.482;2022-10-22T13:34:03;25.60;;;23.03;;
23682;SDS011;24897;53.514;10.482;2022-10-22T13:36:52;25.23;;;23.03;;
23682;SDS011;24897;53.514;10.482;2022-10-22T13:39:37;26.47;;;23.97;;
23682;SDS011;24897;53.514;10.482;2022-10-22T13:42:21;26.47;;;24.27;;
23682;SDS011;24897;53.514;10.482;2022-10-22T13:45:05;27.20;;;24.80;;
23682;SDS011;24897;53.514;10.482;2022-10-22T13:47:51;26.80;;;24.27;;
23682;SDS011;24897;53.514;10.482;2022-10-22T13:50:36;28.70;;;26.13;;
23682;SDS011;24897;53.514;10.482;2022-10-22T13:53:22;26.90;;;24.17;;
23682;SDS011;24897;53.514;10.482;2022-10-22T13:56:10;26.93;;;24.13;;
23682;SDS011;24897;53.514;10.482;2022-10-22T13:58:59;26.13;;;23.80;;
23682;SDS011;24897;53.514;10.482;2022-10-22T14:01:43;26.03;;;23.63;;
23682;SDS011;24897;53.514;10.482;2022-10-22T14:04:28;25.50;;;23.20;;
23682;SDS011;24897;53.514;10.482;2022-10-22T14:07:13;28.57;;;25.70;;
23682;SDS011;24897;53.514;10.482;2022-10-22T14:09:58;25.97;;;22.43;;
23682;SDS011;24897;53.514;10.482;2022-10-22T14:12:42;24.17;;;21.00;;
23682;SDS011;24897;53.514;10.482;2022-10-22T14:15:26;24.43;;;22.10;;
23682;SDS011;24897;53.514;10.482;2022-10-22T14:18:12;25.93;;;23.50;;
23682;SDS011;24897;53.514;10.482;2022-10-22T14:21:07;26.23;;;23.77;;
23682;SDS011;24897;53.514;10.482;2022-10-22T14:23:51;27.17;;;24.53;;
23682;SDS011;24897;53.514;10.482;2022-10-22T14:26:36;28.00;;;25.17;;
23682;SDS011;24897;53.514;10.482;2022-10-22T14:29:21;27.07;;;24.47;;
23682;SDS011;24897;53.514;10.482;2022-10-22T14:32:12;27.57;;;24.90;;
23682;SDS011;24897;53.514;10.482;2022-10-22T14:35:04;27.50;;;24.97;;
23682;SDS011;24897;53.514;10.482;2022-10-22T14:38:07;29.30;;;26.50;;
23682;SDS011;24897;53.514;10.482;2022-10-22T14:40:51;30.80;;;27.93;;
23682;SDS011;24897;53.514;10.482;2022-10-22T14:43:36;30.93;;;28.13;;
23682;SDS011;24897;53.514;10.482;2022-10-22T14:46:20;31.27;;;28.47;;
23682;SDS011;24897;53.514;10.482;2022-10-22T14:49:04;32.00;;;29.10;;
23682;SDS011;24897;53.514;10.482;2022-10-22T14:51:48;31.87;;;28.97;;
23682;SDS011;24897;53.514;10.482;2022-10-22T14:54:32;32.13;;;29.23;;
23682;SDS011;24897;53.514;10.482;2022-10-22T14:57:17;33.47;;;30.37;;
23682;SDS011;24897;53.514;10.482;2022-10-22T15:00:03;32.47;;;29.53;;
23682;SDS011;24897;53.514;10.482;2022-10-22T15:02:55;31.10;;;28.30;;
23682;SDS011;24897;53.514;10.482;2022-10-22T15:05:39;30.87;;;27.87;;
23682;SDS011;24897;53.514;10.482;2022-10-22T15:08:27;28.07;;;25.53;;
23682;SDS011;24897;53.514;10.482;2022-10-22T15:11:12;28.17;;;25.57;;
23682;SDS011;24897;53.514;10.482;2022-10-22T15:13:56;34.40;;;31.00;;
23682;SDS011;24897;53.514;10.482;2022-10-22T15:16:40;25.57;;;23.07;;
23682;SDS011;24897;53.514;10.482;2022-10-22T15:19:24;25.80;;;23.27;;
23682;SDS011;24897;53.514;10.482;2022-10-22T15:22:09;25.50;;;23.10;;
23682;SDS011;24897;53.514;10.482;2022-10-22T15:24:54;26.07;;;23.37;;
23682;SDS011;24897;53.514;10.482;2022-10-22T15:27:38;27.30;;;24.67;;
23682;SDS011;24897;53.514;10.482;2022-10-22T15:30:23;27.30;;;24.53;;
23682;SDS011;24897;53.514;10.482;2022-10-22T15:33:07;26.40;;;24.00;;
23682;SDS011;24897;53.514;10.482;2022-10-22T15:35:51;27.53;;;24.90;;
23682;SDS011;24897;53.514;10.482;2022-10-22T15:38:36;27.43;;;24.83;;
23682;SDS011;24897;53.514;10.482;2022-10-22T15:41:20;28.67;;;25.93;;
23682;SDS011;24897;53.514;10.482;2022-10-22T15:44:04;28.90;;;26.20;;
23682;SDS011;24897;53.514;10.482;2022-10-22T15:46:49;27.70;;;25.13;;
23682;SDS011;24897;53.514;10.482;2022-10-22T15:49:35;28.27;;;25.70;;
23682;SDS011;24897;53.514;10.482;2022-10-22T15:52:21;29.00;;;25.87;;
23682;SDS011;24897;53.514;10.482;2022-10-22T15:55:06;28.80;;;26.10;;
23682;SDS011;24897;53.514;10.482;2022-10-22T15:57:53;28.40;;;25.73;;
23682;SDS011;24897;53.514;10.482;2022-10-22T16:00:38;28.53;;;25.67;;
23682;SDS011;24897;53.514;10.482;2022-10-22T16:03:22;29.83;;;26.90;;
23682;SDS011;24897;53.514;10.482;2022-10-22T16:06:06;29.77;;;26.93;;
23682;SDS011;24897;53.514;10.482;2022-10-22T16:08:52;29.97;;;27.13;;
23682;SDS011;24897;53.514;10.482;2022-10-22T16:11:38;29.30;;;26.53;;
23682;SDS011;24897;53.514;10.482;2022-10-22T16:14:23;29.37;;;26.67;;
23682;SDS011;24897;53.514;10.482;2022-10-22T16:17:08;30.40;;;27.70;;
23682;SDS011;24897;53.514;10.482;2022-10-22T16:19:52;32.63;;;29.27;;
23682;SDS011;24897;53.514;10.482;2022-10-22T16:22:36;33.10;;;29.80;;
23682;SDS011;24897;53.514;10.482;2022-10-22T16:25:20;34.37;;;30.97;;
23682;SDS011;24897;53.514;10.482;2022-10-22T16:28:05;33.93;;;30.73;;
23682;SDS011;24897;53.514;10.482;2022-10-22T16:30:51;41.90;;;34.60;;
23682;SDS011;24897;53.514;10.482;2022-10-22T16:33:35;40.77;;;35.23;;
23682;SDS011;24897;53.514;10.482;2022-10-22T16:36:21;37.60;;;33.57;;
23682;SDS011;24897;53.514;10.482;2022-10-22T16:39:06;41.80;;;36.87;;
23682;SDS011;24897;53.514;10.482;2022-10-22T16:41:50;41.80;;;36.43;;
23682;SDS011;24897;53.514;10.482;2022-10-22T16:44:34;41.10;;;36.23;;
23682;SDS011;24897;53.514;10.482;2022-10-22T16:47:18;40.53;;;36.20;;
23682;SDS011;24897;53.514;10.482;2022-10-22T16:50:03;39.77;;;35.33;;
23682;SDS011;24897;53.514;10.482;2022-10-22T16:52:49;42.60;;;37.67;;
23682;SDS011;24897;53.514;10.482;2022-10-22T16:55:38;43.53;;;38.87;;
23682;SDS011;24897;53.514;10.482;2022-10-22T16:58:22;40.10;;;35.93;;
23682;SDS011;24897;53.514;10.482;2022-10-22T17:01:06;40.97;;;36.30;;
23682;SDS011;24897;53.514;10.482;2022-10-22T17:03:51;41.83;;;36.27;;
23682;SDS011;24897;53.514;10.482;2022-10-22T17:06:37;38.60;;;34.33;;
23682;SDS011;24897;53.514;10.482;2022-10-22T17:09:21;44.57;;;38.20;;
23682;SDS011;24897;53.514;10.482;2022-10-22T17:12:06;46.07;;;38.30;;
23682;SDS011;24897;53.514;10.482;2022-10-22T17:14:51;43.57;;;38.97;;
23682;SDS011;24897;53.514;10.482;2022-10-22T17:17:35;47.20;;;41.53;;
23682;SDS011;24897;53.514;10.482;2022-10-22T17:20:19;42.60;;;37.67;;